Time;durP1;ratioP1;P1;durP2;ratioP2;P2;SDS_P1;SDS_P2;PMS_P1;PMS_P2;Temp;Humidity;BMP_temperature;BMP_pressure;BME280_temperature;BME280_humidity;BME280_pressure;Samples;Min_cycle;Max_cycle;Signal;HPM_P1;HPM_P2
2022/12/28 00:01:08;;;;;;;2.63;1.45;;;;;;;;;;5056722;28;20166;-81
2022/12/28 00:03:34;;;;;;;4.05;1.17;;;;;;;;;;5056240;28;20181;-81
2022/12/28 00:06:00;;;;;;;2.55;1.20;;;;;;;;;;5055221;28;20180;-82
2022/12/28 00:08:26;;;;;;;8.90;1.88;;;;;;;;;;5055417;28;20279;-81
2022/12/28 00:10:54;;;;;;;2.83;1.50;;;;;;;;;;5054931;28;20181;-81
2022/12/28 00:13:21;;;;;;;4.15;1.60;;;;;;;;;;5057069;28;20556;-81
2022/12/28 00:15:47;;;;;;;3.70;1.20;;;;;;;;;;5056272;28;20265;-81
2022/12/28 00:18:13;;;;;;;6.32;2.28;;;;;;;;;;5038567;28;20219;-81
2022/12/28 00:20:39;;;;;;;3.00;1.75;;;;;;;;;;5055309;28;20243;-81
2022/12/28 00:23:05;;;;;;;2.15;1.15;;;;;;;;;;5055818;28;20181;-81
2022/12/28 00:25:34;;;;;;;2.58;1.30;;;;;;;;;;5055530;28;20203;-81
2022/12/28 00:28:00;;;;;;;3.15;1.10;;;;;;;;;;5056382;28;20228;-81
2022/12/28 00:30:26;;;;;;;2.15;1.20;;;;;;;;;;5054668;28;20185;-81
2022/12/28 00:32:52;;;;;;;5.43;1.48;;;;;;;;;;5038155;28;20619;-81
2022/12/28 00:35:18;;;;;;;2.00;1.15;;;;;;;;;;5055659;28;20177;-82
2022/12/28 00:37:44;;;;;;;1.50;1.27;;;;;;;;;;5055104;28;20180;-81
2022/12/28 00:40:10;;;;;;;3.85;1.20;;;;;;;;;;5054695;28;20181;-81
2022/12/28 00:42:36;;;;;;;3.15;1.15;;;;;;;;;;5056235;28;20200;-81
2022/12/28 00:45:02;;;;;;;4.95;1.55;;;;;;;;;;5054439;28;20543;-81
2022/12/28 00:47:28;;;;;;;2.33;1.25;;;;;;;;;;5054566;28;20201;-81
2022/12/28 00:49:54;;;;;;;5.18;1.50;;;;;;;;;;5054925;28;20178;-81
2022/12/28 00:52:20;;;;;;;5.10;1.58;;;;;;;;;;5055264;28;20640;-82
2022/12/28 00:54:46;;;;;;;3.42;1.65;;;;;;;;;;5054640;28;20186;-82
2022/12/28 00:57:12;;;;;;;2.00;1.35;;;;;;;;;;5054916;28;20176;-81
2022/12/28 00:59:38;;;;;;;2.60;1.30;;;;;;;;;;5038905;28;20182;-81
2022/12/28 01:02:04;;;;;;;5.53;1.42;;;;;;;;;;5055496;28;20182;-81
2022/12/28 01:04:30;;;;;;;1.40;1.25;;;;;;;;;;5056813;28;20189;-82
2022/12/28 01:06:56;;;;;;;3.20;1.48;;;;;;;;;;5058550;28;20175;-80
2022/12/28 01:09:22;;;;;;;1.75;1.30;;;;;;;;;;5058539;28;20235;-81
2022/12/28 01:11:48;;;;;;;7.75;1.52;;;;;;;;;;5058775;28;20262;-81
2022/12/28 01:14:14;;;;;;;3.25;1.50;;;;;;;;;;5058434;28;20220;-81
2022/12/28 01:16:40;;;;;;;4.60;1.60;;;;;;;;;;5058496;28;20180;-81
2022/12/28 01:19:07;;;;;;;4.25;1.67;;;;;;;;;;5058453;28;20169;-81
2022/12/28 01:21:34;;;;;;;5.50;1.58;;;;;;;;;;5058197;28;20214;-81
2022/12/28 01:24:01;;;;;;;3.45;1.70;;;;;;;;;;5059642;28;20676;-81
2022/12/28 01:26:28;;;;;;;2.28;1.27;;;;;;;;;;5058510;28;20257;-81
2022/12/28 01:28:54;;;;;;;2.85;1.58;;;;;;;;;;5057979;28;20208;-81
2022/12/28 01:31:21;;;;;;;2.45;1.00;;;;;;;;;;5059244;28;20174;-81
2022/12/28 01:33:47;;;;;;;5.90;1.70;;;;;;;;;;5058939;28;20201;-81
2022/12/28 01:36:15;;;;;;;4.72;1.45;;;;;;;;;;5059240;28;20176;-81
2022/12/28 01:38:41;;;;;;;2.03;1.27;;;;;;;;;;5058744;28;20175;-81
2022/12/28 01:41:08;;;;;;;3.75;1.67;;;;;;;;;;5057395;28;20182;-81
2022/12/28 01:43:44;;;;;;;2.28;1.52;;;;;;;;;;5059109;28;20584;-81
2022/12/28 01:46:13;;;;;;;3.55;1.77;;;;;;;;;;5059536;28;20159;-81
2022/12/28 01:48:49;;;;;;;4.80;1.85;;;;;;;;;;5059401;28;20573;-81
2022/12/28 01:51:17;;;;;;;2.33;2.10;;;;;;;;;;5058596;28;20223;-81
2022/12/28 01:53:43;;;;;;;1.30;1.10;;;;;;;;;;5041079;28;20564;-83
2022/12/28 01:56:09;;;;;;;2.90;1.10;;;;;;;;;;5057501;28;20188;-82
2022/12/28 01:58:35;;;;;;;3.53;1.10;;;;;;;;;;5058016;28;20271;-81
2022/12/28 02:01:02;;;;;;;5.85;1.45;;;;;;;;;;5041160;28;20205;-81
2022/12/28 02:03:30;;;;;;;2.10;1.02;;;;;;;;;;5057813;28;20175;-81
2022/12/28 02:05:58;;;;;;;2.95;1.38;;;;;;;;;;5058311;28;20173;-81
2022/12/28 02:08:30;;;;;;;1.83;1.42;;;;;;;;;;5056917;28;20233;-81
2022/12/28 02:10:56;;;;;;;1.70;1.40;;;;;;;;;;5057964;28;20624;-83
2022/12/28 02:13:23;;;;;;;1.85;1.20;;;;;;;;;;5041071;28;20309;-81
2022/12/28 02:15:50;;;;;;;1.40;1.17;;;;;;;;;;5057454;28;20260;-82
2022/12/28 02:18:17;;;;;;;2.92;1.30;;;;;;;;;;5058347;28;20259;-81
2022/12/28 02:20:49;;;;;;;3.08;1.00;;;;;;;;;;5057370;28;20184;-81
2022/12/28 02:23:16;;;;;;;5.20;1.40;;;;;;;;;;5056774;28;20637;-82
2022/12/28 02:26:00;;;;;;;1.88;1.30;;;;;;;;;;5057820;28;20270;-82
2022/12/28 02:28:45;;;;;;;3.45;1.30;;;;;;;;;;5056964;28;20265;-81
2022/12/28 02:31:14;;;;;;;2.58;1.10;;;;;;;;;;5056467;28;20182;-81
2022/12/28 02:33:59;;;;;;;1.13;1.00;;;;;;;;;;5057740;28;20201;-81
2022/12/28 02:36:28;;;;;;;1.30;1.05;;;;;;;;;;5056615;28;20177;-81
2022/12/28 02:38:59;;;;;;;2.17;1.02;;;;;;;;;;5056019;28;20349;-81
2022/12/28 02:41:26;;;;;;;1.08;0.98;;;;;;;;;;5056235;28;20220;-81
2022/12/28 02:43:53;;;;;;;6.88;1.60;;;;;;;;;;5056280;28;20175;-82
2022/12/28 02:52:06;;;;;;;3.10;1.10;;;;;;;;;;5057545;28;20161;-81
2022/12/28 02:57:46;;;;;;;2.88;1.10;;;;;;;;;;5057389;28;20163;-81
2022/12/28 03:00:16;;;;;;;1.95;1.17;;;;;;;;;;5048362;28;20185;-81
2022/12/28 03:02:42;;;;;;;1.15;0.93;;;;;;;;;;5056286;28;20178;-81
2022/12/28 03:08:13;;;;;;;2.30;0.97;;;;;;;;;;5055770;28;20184;-81
2022/12/28 03:08:42;;;;;;;2.47;1.38;;;;;;;;;;5056410;28;20522;-81
2022/12/28 03:11:09;;;;;;;2.03;1.20;;;;;;;;;;5056398;28;20674;-81
2022/12/28 03:13:42;;;;;;;2.33;1.00;;;;;;;;;;5055590;28;20213;-82
2022/12/28 03:16:24;;;;;;;0.93;0.82;;;;;;;;;;5056635;28;20516;-80
2022/12/28 03:32:50;;;;;;;1.05;0.95;;;;;;;;;;5056398;28;20208;-80
2022/12/28 03:35:20;;;;;;;1.25;0.93;;;;;;;;;;5056109;28;20236;-81
2022/12/28 03:37:56;;;;;;;2.05;1.05;;;;;;;;;;5055408;28;20205;-82
2022/12/28 03:40:26;;;;;;;2.50;1.20;;;;;;;;;;5056292;28;20165;-80
2022/12/28 03:45:50;;;;;;;2.55;1.17;;;;;;;;;;5056735;28;20561;-80
2022/12/28 03:48:16;;;;;;;2.13;1.25;;;;;;;;;;5055423;28;20176;-80
2022/12/28 03:50:46;;;;;;;1.40;1.10;;;;;;;;;;5056333;28;20657;-80
2022/12/28 03:53:12;;;;;;;1.33;0.90;;;;;;;;;;5054488;28;20281;-80
2022/12/28 03:55:39;;;;;;;1.40;1.08;;;;;;;;;;5055240;28;20188;-80
2022/12/28 03:58:05;;;;;;;2.35;1.20;;;;;;;;;;5055144;28;20166;-80
2022/12/28 04:00:32;;;;;;;1.48;1.10;;;;;;;;;;5056366;28;20216;-80
2022/12/28 04:02:58;;;;;;;1.60;0.95;;;;;;;;;;5054632;28;20209;-80
2022/12/28 04:05:24;;;;;;;1.52;1.25;;;;;;;;;;5055150;28;20268;-80
2022/12/28 04:07:51;;;;;;;2.40;0.85;;;;;;;;;;5054631;28;20675;-80
2022/12/28 04:10:17;;;;;;;1.30;0.90;;;;;;;;;;5056010;28;20569;-82
2022/12/28 04:12:45;;;;;;;1.63;1.10;;;;;;;;;;5055974;28;20221;-82
2022/12/28 04:15:11;;;;;;;2.60;1.20;;;;;;;;;;5056074;28;20250;-82
2022/12/28 04:17:37;;;;;;;1.13;1.02;;;;;;;;;;5056171;28;20181;-82
2022/12/28 04:20:06;;;;;;;1.38;0.90;;;;;;;;;;5054475;28;20177;-82
2022/12/28 04:22:32;;;;;;;4.50;0.90;;;;;;;;;;5056015;28;20181;-81
2022/12/28 04:24:58;;;;;;;5.18;1.20;;;;;;;;;;5054423;28;20173;-81
2022/12/28 04:27:24;;;;;;;1.63;1.00;;;;;;;;;;5055028;28;20174;-81
2022/12/28 04:29:50;;;;;;;3.55;0.90;;;;;;;;;;5054586;28;20233;-82
2022/12/28 04:32:16;;;;;;;4.50;1.17;;;;;;;;;;5053944;28;20199;-81
2022/12/28 04:34:42;;;;;;;1.77;1.10;;;;;;;;;;5054226;28;20225;-82
2022/12/28 04:37:08;;;;;;;2.72;1.35;;;;;;;;;;5054931;28;20529;-81
2022/12/28 04:39:35;;;;;;;2.35;1.00;;;;;;;;;;5055779;28;20174;-81
2022/12/28 04:42:01;;;;;;;1.90;1.05;;;;;;;;;;5053672;28;20189;-82
2022/12/28 04:44:27;;;;;;;1.20;1.10;;;;;;;;;;5054304;28;20192;-82
2022/12/28 04:46:53;;;;;;;4.20;1.10;;;;;;;;;;5054200;28;20558;-81
2022/12/28 04:49:19;;;;;;;3.53;1.00;;;;;;;;;;5055415;28;20178;-83
2022/12/28 04:51:45;;;;;;;2.35;0.90;;;;;;;;;;5037832;28;20177;-81
2022/12/28 04:54:14;;;;;;;1.65;0.95;;;;;;;;;;5054620;28;20205;-82
2022/12/28 04:56:40;;;;;;;1.83;1.00;;;;;;;;;;5037591;28;20247;-81
2022/12/28 04:59:06;;;;;;;1.30;1.17;;;;;;;;;;5053680;28;20268;-81
2022/12/28 05:01:32;;;;;;;1.67;1.10;;;;;;;;;;5037455;28;20181;-81
2022/12/28 05:03:58;;;;;;;0.85;0.70;;;;;;;;;;5053608;28;20218;-82
2022/12/28 05:06:26;;;;;;;2.20;0.90;;;;;;;;;;5054226;28;20177;-81
2022/12/28 05:08:52;;;;;;;2.65;0.88;;;;;;;;;;5038066;28;20602;-76
2022/12/28 05:11:19;;;;;;;1.27;0.75;;;;;;;;;;5054753;28;20185;-76
2022/12/28 05:13:45;;;;;;;3.65;0.90;;;;;;;;;;5055006;28;20213;-76
2022/12/28 05:16:13;;;;;;;1.38;1.27;;;;;;;;;;5054863;28;20173;-76
2022/12/28 05:18:39;;;;;;;3.38;1.00;;;;;;;;;;5055332;28;20211;-76
2022/12/28 05:21:11;;;;;;;1.10;0.90;;;;;;;;;;5056787;28;20181;-76
2022/12/28 05:23:37;;;;;;;1.70;1.13;;;;;;;;;;5056424;28;20173;-77
2022/12/28 05:26:04;;;;;;;1.10;0.80;;;;;;;;;;5054762;28;20169;-76
2022/12/28 05:28:30;;;;;;;2.05;0.98;;;;;;;;;;5055508;28;20545;-76
2022/12/28 05:31:00;;;;;;;3.20;0.95;;;;;;;;;;5055303;28;20680;-76
2022/12/28 05:33:28;;;;;;;3.35;1.10;;;;;;;;;;5056402;28;20197;-76
2022/12/28 05:35:54;;;;;;;1.90;0.93;;;;;;;;;;5056459;28;20165;-76
2022/12/28 05:38:20;;;;;;;2.55;0.95;;;;;;;;;;5054768;28;20653;-78
2022/12/28 05:40:46;;;;;;;1.73;1.00;;;;;;;;;;5055155;28;20186;-76
2022/12/28 05:43:12;;;;;;;1.17;0.70;;;;;;;;;;5055234;28;20192;-76
2022/12/28 05:45:38;;;;;;;1.60;1.20;;;;;;;;;;5056294;28;20188;-76
2022/12/28 05:48:04;;;;;;;1.52;0.80;;;;;;;;;;5054536;28;20197;-76
2022/12/28 05:50:30;;;;;;;1.15;0.90;;;;;;;;;;5058627;28;20223;-76
2022/12/28 05:52:57;;;;;;;2.78;0.80;;;;;;;;;;5060226;28;20292;-76
2022/12/28 05:55:23;;;;;;;2.10;0.90;;;;;;;;;;5060020;28;20176;-77
2022/12/28 05:57:49;;;;;;;1.75;0.90;;;;;;;;;;5059953;28;20178;-76
2022/12/28 06:00:16;;;;;;;2.72;0.80;;;;;;;;;;5042146;28;20181;-76
2022/12/28 06:02:42;;;;;;;1.30;1.15;;;;;;;;;;5059289;28;20174;-76
2022/12/28 06:05:08;;;;;;;0.90;0.60;;;;;;;;;;5058554;28;20284;-76
2022/12/28 06:07:34;;;;;;;3.30;0.93;;;;;;;;;;5060143;28;20178;-76
2022/12/28 06:10:00;;;;;;;0.73;0.60;;;;;;;;;;5058993;28;20631;-76
2022/12/28 06:12:26;;;;;;;1.45;0.85;;;;;;;;;;5060105;28;20174;-75
2022/12/28 06:14:52;;;;;;;1.55;0.75;;;;;;;;;;5060276;28;20223;-76
2022/12/28 06:17:18;;;;;;;1.73;0.73;;;;;;;;;;5059656;28;20170;-77
2022/12/28 06:19:44;;;;;;;1.80;0.90;;;;;;;;;;5059866;28;20212;-75
2022/12/28 06:22:10;;;;;;;3.63;1.05;;;;;;;;;;5058760;28;20518;-76
2022/12/28 06:24:36;;;;;;;6.07;1.70;;;;;;;;;;5059807;28;20189;-76
2022/12/28 06:27:02;;;;;;;0.80;0.60;;;;;;;;;;5059158;28;20177;-81
2022/12/28 06:29:28;;;;;;;2.05;0.70;;;;;;;;;;5059764;28;20200;-76
2022/12/28 06:31:55;;;;;;;2.15;0.77;;;;;;;;;;5059322;28;20178;-76
2022/12/28 06:34:21;;;;;;;3.05;1.17;;;;;;;;;;5058166;28;20240;-76
2022/12/28 06:36:51;;;;;;;1.05;0.70;;;;;;;;;;5059377;28;20174;-76
2022/12/28 06:39:17;;;;;;;1.50;0.90;;;;;;;;;;5058353;28;20185;-76
2022/12/28 06:41:43;;;;;;;3.63;0.90;;;;;;;;;;5041548;28;20545;-76
2022/12/28 06:44:10;;;;;;;0.90;0.80;;;;;;;;;;5059098;28;20202;-77
2022/12/28 06:46:36;;;;;;;1.08;0.80;;;;;;;;;;5059311;28;20500;-76
2022/12/28 06:49:02;;;;;;;5.00;1.10;;;;;;;;;;5059318;28;20181;-76
2022/12/28 06:51:30;;;;;;;1.63;0.77;;;;;;;;;;5057935;28;20170;-76
2022/12/28 06:53:56;;;;;;;1.67;0.88;;;;;;;;;;5059720;28;20193;-76
2022/12/28 06:56:27;;;;;;;1.20;0.82;;;;;;;;;;5058798;28;20213;-76
2022/12/28 06:58:53;;;;;;;1.70;0.80;;;;;;;;;;5057124;28;20177;-76
2022/12/28 07:01:21;;;;;;;1.08;0.70;;;;;;;;;;5056126;28;20185;-76
2022/12/28 07:03:48;;;;;;;0.88;0.70;;;;;;;;;;5059303;28;20235;-76
2022/12/28 07:06:15;;;;;;;0.90;0.80;;;;;;;;;;5058662;28;20181;-76
2022/12/28 07:08:41;;;;;;;1.00;0.90;;;;;;;;;;5058870;28;20236;-76
2022/12/28 07:11:09;;;;;;;3.15;1.20;;;;;;;;;;5057071;28;20204;-76
2022/12/28 07:13:35;;;;;;;1.50;0.80;;;;;;;;;;5058851;28;20233;-77
2022/12/28 07:16:01;;;;;;;0.85;0.70;;;;;;;;;;5059187;28;20177;-76
2022/12/28 07:18:28;;;;;;;2.50;0.90;;;;;;;;;;5053406;28;20178;-77
2022/12/28 07:21:26;;;;;;;0.77;0.77;;;;;;;;;;5057233;28;20255;-78
2022/12/28 07:23:53;;;;;;;1.55;0.90;;;;;;;;;;5045996;28;20284;-76
2022/12/28 07:26:21;;;;;;;0.80;0.70;;;;;;;;;;5058327;28;20658;-76
2022/12/28 07:28:49;;;;;;;1.00;0.80;;;;;;;;;;5059014;28;20181;-76
2022/12/28 07:31:16;;;;;;;2.05;0.95;;;;;;;;;;5057916;28;20165;-77
2022/12/28 07:33:45;;;;;;;1.88;0.70;;;;;;;;;;5058852;28;20209;-76
2022/12/28 07:36:13;;;;;;;1.02;0.70;;;;;;;;;;5057346;28;20213;-76
2022/12/28 07:38:39;;;;;;;1.00;0.70;;;;;;;;;;5056881;28;20196;-76
2022/12/28 07:41:15;;;;;;;1.15;0.70;;;;;;;;;;5058335;28;20182;-76
2022/12/28 07:43:41;;;;;;;1.70;0.70;;;;;;;;;;5056266;28;20212;-76
2022/12/28 07:46:12;;;;;;;1.30;0.75;;;;;;;;;;5056545;28;20174;-79
2022/12/28 07:48:39;;;;;;;0.80;0.60;;;;;;;;;;5058289;28;20170;-76
2022/12/28 07:51:13;;;;;;;0.90;0.80;;;;;;;;;;5057978;28;20181;-76
2022/12/28 07:53:40;;;;;;;0.95;0.60;;;;;;;;;;5058143;28;20215;-76
2022/12/28 07:56:06;;;;;;;1.00;0.65;;;;;;;;;;5058205;28;20512;-76
2022/12/28 07:58:32;;;;;;;0.93;0.70;;;;;;;;;;5040344;28;20189;-76
2022/12/28 08:01:04;;;;;;;0.80;0.77;;;;;;;;;;5057580;28;20260;-76
2022/12/28 08:03:30;;;;;;;1.65;0.80;;;;;;;;;;5057938;28;20172;-78
2022/12/28 08:06:01;;;;;;;1.30;0.90;;;;;;;;;;5057740;28;20555;-76
2022/12/28 08:08:27;;;;;;;0.90;0.70;;;;;;;;;;5057276;28;20225;-76
2022/12/28 08:10:53;;;;;;;1.42;0.98;;;;;;;;;;5056237;28;20186;-76
2022/12/28 08:13:19;;;;;;;1.27;0.77;;;;;;;;;;5056976;28;20209;-76
2022/12/28 08:15:53;;;;;;;1.40;0.82;;;;;;;;;;5057725;28;20184;-76
2022/12/28 08:18:19;;;;;;;1.80;0.80;;;;;;;;;;5055747;28;20268;-76
2022/12/28 08:20:45;;;;;;;3.20;0.80;;;;;;;;;;5056462;28;20185;-76
2022/12/28 08:23:11;;;;;;;1.63;0.80;;;;;;;;;;5055880;28;20177;-76
2022/12/28 08:25:37;;;;;;;3.17;0.70;;;;;;;;;;5057575;28;20535;-76
2022/12/28 08:28:03;;;;;;;1.05;0.75;;;;;;;;;;5056972;28;20169;-76
2022/12/28 08:30:29;;;;;;;0.93;0.80;;;;;;;;;;5056869;28;20185;-78
2022/12/28 08:32:55;;;;;;;1.45;0.70;;;;;;;;;;5057570;28;20205;-76
2022/12/28 08:35:21;;;;;;;2.00;0.90;;;;;;;;;;5055255;28;20177;-76
2022/12/28 08:37:47;;;;;;;1.40;0.90;;;;;;;;;;5057118;28;20182;-76
2022/12/28 08:40:13;;;;;;;0.80;0.70;;;;;;;;;;5056585;28;20174;-77
2022/12/28 08:42:39;;;;;;;1.67;0.50;;;;;;;;;;5038629;28;20250;-77
2022/12/28 08:45:06;;;;;;;1.45;0.70;;;;;;;;;;5055469;28;20652;-77
2022/12/28 08:47:32;;;;;;;0.60;0.60;;;;;;;;;;5039310;28;20209;-76
2022/12/28 08:49:58;;;;;;;1.20;0.73;;;;;;;;;;5057127;28;20169;-76
2022/12/28 08:52:24;;;;;;;0.80;0.60;;;;;;;;;;5056299;28;20189;-76
2022/12/28 08:54:50;;;;;;;1.83;1.00;;;;;;;;;;5056440;28;20265;-76
2022/12/28 08:57:16;;;;;;;1.05;0.80;;;;;;;;;;5056276;28;20193;-76
2022/12/28 08:59:43;;;;;;;1.00;0.70;;;;;;;;;;5056500;28;20182;-76
2022/12/28 09:02:11;;;;;;;3.80;0.80;;;;;;;;;;5056201;28;20178;-76
2022/12/28 09:04:38;;;;;;;0.90;0.68;;;;;;;;;;5055533;28;20192;-76
2022/12/28 09:07:04;;;;;;;1.13;0.90;;;;;;;;;;5057112;28;20162;-76
2022/12/28 09:09:30;;;;;;;1.10;0.88;;;;;;;;;;5056790;28;20232;-76
2022/12/28 09:11:56;;;;;;;0.90;0.70;;;;;;;;;;5055552;28;20243;-75
2022/12/28 09:14:22;;;;;;;1.75;0.68;;;;;;;;;;5056599;28;20546;-77
2022/12/28 09:16:48;;;;;;;0.88;0.82;;;;;;;;;;5056737;28;20183;-76
2022/12/28 09:19:14;;;;;;;2.28;0.90;;;;;;;;;;5056789;28;20219;-77
2022/12/28 09:21:41;;;;;;;1.00;0.70;;;;;;;;;;5056495;28;20173;-76
2022/12/28 09:24:07;;;;;;;1.40;0.70;;;;;;;;;;5038786;28;20192;-77
2022/12/28 09:26:37;;;;;;;0.80;0.80;;;;;;;;;;5059010;28;20170;-77
2022/12/28 09:29:05;;;;;;;1.40;0.93;;;;;;;;;;5058008;28;20183;-78
2022/12/28 09:31:32;;;;;;;1.55;0.80;;;;;;;;;;5058794;28;20659;-77
2022/12/28 09:33:59;;;;;;;1.13;0.73;;;;;;;;;;5058958;28;20211;-76
2022/12/28 09:36:29;;;;;;;0.70;0.57;;;;;;;;;;5060223;28;20177;-76
2022/12/28 09:38:56;;;;;;;0.70;0.70;;;;;;;;;;5061143;28;20174;-76
2022/12/28 09:41:40;;;;;;;1.10;0.70;;;;;;;;;;5060630;28;20184;-76
2022/12/28 09:44:15;;;;;;;0.80;0.70;;;;;;;;;;5059147;28;20182;-75
2022/12/28 09:46:51;;;;;;;0.93;0.73;;;;;;;;;;5060499;28;20170;-75
2022/12/28 09:49:18;;;;;;;0.60;0.50;;;;;;;;;;5059723;28;20176;-77
2022/12/28 09:51:48;;;;;;;0.90;0.75;;;;;;;;;;5059049;28;20224;-76
2022/12/28 09:54:14;;;;;;;0.80;0.70;;;;;;;;;;5058328;28;20568;-82
2022/12/28 09:56:41;;;;;;;1.43;0.60;;;;;;;;;;5060007;28;20185;-76
2022/12/28 09:59:08;;;;;;;0.70;0.60;;;;;;;;;;5058680;28;20423;-76
2022/12/28 10:01:35;;;;;;;0.80;0.70;;;;;;;;;;5059951;28;20174;-76
2022/12/28 10:04:02;;;;;;;1.08;0.80;;;;;;;;;;5058130;28;20239;-77
2022/12/28 10:06:31;;;;;;;0.70;0.70;;;;;;;;;;5042306;28;20174;-76
2022/12/28 10:08:59;;;;;;;1.08;0.75;;;;;;;;;;5059635;28;20231;-76
2022/12/28 10:11:29;;;;;;;0.80;0.70;;;;;;;;;;5059361;28;20680;-76
2022/12/28 10:13:57;;;;;;;1.58;0.70;;;;;;;;;;5059979;28;20607;-76
2022/12/28 10:16:24;;;;;;;1.35;0.98;;;;;;;;;;5057691;28;20618;-76
2022/12/28 10:18:50;;;;;;;2.47;0.82;;;;;;;;;;5057011;28;20177;-76
2022/12/28 10:21:20;;;;;;;0.70;0.60;;;;;;;;;;5057447;28;20733;-80
2022/12/28 10:23:51;;;;;;;1.35;0.70;;;;;;;;;;5058711;28;20177;-76
2022/12/28 10:26:19;;;;;;;1.00;0.70;;;;;;;;;;5057896;28;20182;-76
2022/12/28 10:28:52;;;;;;;0.88;0.60;;;;;;;;;;5059324;28;20169;-76
2022/12/28 10:31:35;;;;;;;1.27;0.70;;;;;;;;;;5060360;28;20172;-76
2022/12/28 10:34:01;;;;;;;0.70;0.60;;;;;;;;;;5057596;28;20216;-76
2022/12/28 10:36:33;;;;;;;1.80;0.80;;;;;;;;;;5056730;28;20231;-75
2022/12/28 10:39:00;;;;;;;0.98;0.70;;;;;;;;;;5058654;28;20189;-76
2022/12/28 10:41:35;;;;;;;0.80;0.60;;;;;;;;;;5056760;28;20174;-76
2022/12/28 10:44:11;;;;;;;1.83;0.77;;;;;;;;;;5057601;28;20189;-75
2022/12/28 10:46:37;;;;;;;0.90;0.70;;;;;;;;;;5061817;28;20184;-77
2022/12/28 10:49:03;;;;;;;1.17;0.70;;;;;;;;;;5078744;28;20184;-76
2022/12/28 10:51:29;;;;;;;0.90;0.60;;;;;;;;;;5077244;28;20659;-76
2022/12/28 10:53:56;;;;;;;0.93;0.70;;;;;;;;;;5058232;28;20811;-75
2022/12/28 10:56:24;;;;;;;4.65;1.20;;;;;;;;;;5058136;28;20170;-76
2022/12/28 10:58:52;;;;;;;1.13;0.70;;;;;;;;;;5058391;28;20178;-76
2022/12/28 11:01:28;;;;;;;0.80;0.70;;;;;;;;;;5058106;28;20170;-79
2022/12/28 11:04:08;;;;;;;0.77;0.70;;;;;;;;;;5038263;28;20241;-76
2022/12/28 11:06:35;;;;;;;0.63;0.50;;;;;;;;;;5052850;28;20193;-76
2022/12/28 11:09:01;;;;;;;1.42;0.70;;;;;;;;;;5057780;28;20264;-76
2022/12/28 11:11:27;;;;;;;3.97;1.00;;;;;;;;;;5056415;28;20189;-77
2022/12/28 11:13:56;;;;;;;1.35;0.70;;;;;;;;;;5056096;28;20213;-76
2022/12/28 11:16:22;;;;;;;0.80;0.70;;;;;;;;;;5057230;28;20185;-76
2022/12/28 11:18:48;;;;;;;0.70;0.60;;;;;;;;;;5058494;28;20185;-76
2022/12/28 11:21:18;;;;;;;1.38;0.80;;;;;;;;;;5057892;28;20408;-76
2022/12/28 11:23:44;;;;;;;1.40;0.70;;;;;;;;;;5057692;28;20227;-76
2022/12/28 11:26:13;;;;;;;5.30;1.00;;;;;;;;;;5056458;28;20196;-77
2022/12/28 11:28:41;;;;;;;3.70;1.00;;;;;;;;;;5056362;28;20476;-76
2022/12/28 11:31:07;;;;;;;1.88;1.13;;;;;;;;;;5056740;28;20178;-76
2022/12/28 11:33:44;;;;;;;1.38;0.80;;;;;;;;;;5056107;28;20288;-76
2022/12/28 11:36:14;;;;;;;3.13;1.20;;;;;;;;;;5056926;28;20200;-76
2022/12/28 11:38:44;;;;;;;2.75;1.10;;;;;;;;;;5056118;28;20529;-76
2022/12/28 11:41:12;;;;;;;1.63;1.05;;;;;;;;;;5056784;28;20264;-77
2022/12/28 11:43:39;;;;;;;1.35;1.20;;;;;;;;;;5056635;28;20240;-77
2022/12/28 11:46:06;;;;;;;3.33;1.08;;;;;;;;;;5055616;28;20635;-76
2022/12/28 11:48:42;;;;;;;2.38;1.15;;;;;;;;;;5056194;28;20181;-76
2022/12/28 11:51:14;;;;;;;1.00;0.90;;;;;;;;;;5057303;28;20239;-75
2022/12/28 11:53:43;;;;;;;3.10;1.35;;;;;;;;;;5057549;28;20688;-77
2022/12/28 11:56:10;;;;;;;1.88;0.90;;;;;;;;;;5056794;28;20181;-76
2022/12/28 11:58:39;;;;;;;1.10;0.90;;;;;;;;;;5057203;28;20249;-76
2022/12/28 12:01:08;;;;;;;1.13;0.85;;;;;;;;;;5057479;28;20594;-76
2022/12/28 12:03:52;;;;;;;1.33;0.85;;;;;;;;;;5057077;28;20182;-76
2022/12/28 12:06:18;;;;;;;1.90;1.00;;;;;;;;;;5057587;28;20256;-75
2022/12/28 12:08:48;;;;;;;1.98;0.93;;;;;;;;;;5057287;28;20308;-76
2022/12/28 12:11:28;;;;;;;3.97;1.20;;;;;;;;;;5057846;28;20180;-76
2022/12/28 12:13:55;;;;;;;1.65;1.08;;;;;;;;;;5056873;28;20201;-76
2022/12/28 12:16:28;;;;;;;1.73;1.00;;;;;;;;;;5057205;28;20181;-77
2022/12/28 12:18:58;;;;;;;1.90;1.10;;;;;;;;;;5056520;28;20227;-77
2022/12/28 12:21:24;;;;;;;1.35;0.95;;;;;;;;;;5035589;28;20186;-76
2022/12/28 12:23:52;;;;;;;1.00;0.77;;;;;;;;;;5036062;28;20297;-76
2022/12/28 12:26:20;;;;;;;1.08;0.85;;;;;;;;;;5042857;28;20423;-76
2022/12/28 12:28:53;;;;;;;3.30;1.00;;;;;;;;;;5056470;28;20528;-76
2022/12/28 12:31:40;;;;;;;1.58;0.95;;;;;;;;;;5057267;28;20181;-76
2022/12/28 12:34:13;;;;;;;2.45;0.80;;;;;;;;;;5056692;28;20201;-76
2022/12/28 12:37:02;;;;;;;3.97;1.27;;;;;;;;;;5056251;28;20158;-76
2022/12/28 12:39:35;;;;;;;1.65;0.80;;;;;;;;;;5055749;28;20181;-76
2022/12/28 12:42:07;;;;;;;1.30;0.77;;;;;;;;;;5056473;28;20185;-77
2022/12/28 12:44:48;;;;;;;2.38;0.90;;;;;;;;;;5056636;28;20551;-77
2022/12/28 12:47:41;;;;;;;1.45;0.60;;;;;;;;;;5054737;28;20177;-77
2022/12/28 12:50:14;;;;;;;2.75;0.75;;;;;;;;;;5048098;28;20189;-77
2022/12/28 12:52:53;;;;;;;1.80;0.80;;;;;;;;;;5056570;28;20165;-77
2022/12/28 12:55:28;;;;;;;6.50;1.20;;;;;;;;;;5055325;28;20177;-77
2022/12/28 12:57:57;;;;;;;5.65;0.73;;;;;;;;;;5056547;28;20519;-76
2022/12/28 13:00:25;;;;;;;1.83;0.80;;;;;;;;;;5056812;28;20510;-76
2022/12/28 13:02:54;;;;;;;2.72;1.20;;;;;;;;;;5056531;28;20264;-77
2022/12/28 13:05:21;;;;;;;5.05;1.15;;;;;;;;;;5055319;28;20665;-77
2022/12/28 13:07:49;;;;;;;1.58;1.02;;;;;;;;;;5055818;28;20220;-76
2022/12/28 13:10:35;;;;;;;2.13;1.15;;;;;;;;;;5056408;28;20221;-76
2022/12/28 13:13:02;;;;;;;2.25;1.02;;;;;;;;;;5055688;28;20248;-79
2022/12/28 13:15:28;;;;;;;4.40;1.58;;;;;;;;;;5055704;28;20229;-79
2022/12/28 13:18:15;;;;;;;1.13;0.88;;;;;;;;;;5055632;28;20177;-79
2022/12/28 13:20:41;;;;;;;1.98;0.90;;;;;;;;;;5051454;28;20645;-78
2022/12/28 13:23:16;;;;;;;2.35;1.25;;;;;;;;;;5055078;28;20193;-79
2022/12/28 13:25:45;;;;;;;2.58;1.10;;;;;;;;;;5054915;28;20204;-78
2022/12/28 13:28:18;;;;;;;1.98;0.80;;;;;;;;;;5055925;28;20170;-78
2022/12/28 13:30:54;;;;;;;1.48;0.80;;;;;;;;;;5053922;28;20174;-78
2022/12/28 13:33:21;;;;;;;1.10;0.80;;;;;;;;;;5055585;28;20249;-78
2022/12/28 13:35:47;;;;;;;0.90;0.70;;;;;;;;;;5054247;28;20938;-78
2022/12/28 13:38:14;;;;;;;2.42;1.40;;;;;;;;;;5054337;28;20256;-78
2022/12/28 13:40:41;;;;;;;3.00;1.10;;;;;;;;;;5055229;28;20173;-78
2022/12/28 13:43:07;;;;;;;2.45;1.02;;;;;;;;;;5055946;28;20189;-78
2022/12/28 13:45:33;;;;;;;1.80;1.33;;;;;;;;;;5053693;28;20541;-78
2022/12/28 13:48:00;;;;;;;1.92;1.73;;;;;;;;;;5054789;28;20419;-78
2022/12/28 13:50:28;;;;;;;2.22;1.60;;;;;;;;;;5055284;28;20182;-78
2022/12/28 13:53:02;;;;;;;4.95;1.48;;;;;;;;;;5055126;28;20220;-78
2022/12/28 13:55:35;;;;;;;1.70;1.13;;;;;;;;;;5055160;28;20168;-81
2022/12/28 13:58:03;;;;;;;2.92;1.42;;;;;;;;;;5053905;28;20174;-78
2022/12/28 14:00:30;;;;;;;3.85;1.30;;;;;;;;;;5053290;28;20177;-82
2022/12/28 14:02:57;;;;;;;4.13;1.60;;;;;;;;;;5055588;28;20177;-78
2022/12/28 14:05:25;;;;;;;1.73;1.30;;;;;;;;;;5054229;28;20189;-78
2022/12/28 14:07:52;;;;;;;10.02;3.70;;;;;;;;;;5055112;28;20176;-78
2022/12/28 14:10:18;;;;;;;2.67;1.70;;;;;;;;;;5053865;28;20236;-78
2022/12/28 14:12:45;;;;;;;3.10;1.33;;;;;;;;;;5058489;28;20177;-78
2022/12/28 14:15:12;;;;;;;4.15;2.60;;;;;;;;;;5057204;28;20201;-78
2022/12/28 14:17:39;;;;;;;1.35;0.95;;;;;;;;;;5058675;28;20253;-78
2022/12/28 14:20:05;;;;;;;1.90;1.20;;;;;;;;;;5040680;28;20189;-78
2022/12/28 14:22:33;;;;;;;3.08;1.77;;;;;;;;;;5059539;28;20166;-79
2022/12/28 14:25:07;;;;;;;2.00;1.30;;;;;;;;;;5055057;28;20209;-79
2022/12/28 14:27:35;;;;;;;1.50;1.40;;;;;;;;;;5053915;28;20185;-79
2022/12/28 14:30:01;;;;;;;3.28;1.35;;;;;;;;;;5058562;28;20173;-78
2022/12/28 14:32:27;;;;;;;2.20;1.20;;;;;;;;;;5056996;28;20177;-78
2022/12/28 14:35:03;;;;;;;8.05;1.88;;;;;;;;;;5057692;28;20209;-78
2022/12/28 14:37:38;;;;;;;3.83;1.23;;;;;;;;;;5056901;28;20636;-78
2022/12/28 14:40:05;;;;;;;2.63;1.40;;;;;;;;;;5056744;28;20185;-78
2022/12/28 14:42:32;;;;;;;2.95;1.20;;;;;;;;;;5058442;28;20180;-82
2022/12/28 14:44:58;;;;;;;2.95;1.10;;;;;;;;;;5057998;28;20223;-78
2022/12/28 14:47:43;;;;;;;2.60;1.40;;;;;;;;;;5056933;28;20196;-78
2022/12/28 14:50:22;;;;;;;3.60;1.90;;;;;;;;;;5058184;28;20162;-78
2022/12/28 14:52:49;;;;;;;2.35;1.20;;;;;;;;;;5056706;28;20180;-78
2022/12/28 14:55:23;;;;;;;1.90;1.23;;;;;;;;;;5056796;28;20197;-79
2022/12/28 14:57:51;;;;;;;2.83;1.13;;;;;;;;;;5057417;28;20164;-79
2022/12/28 15:00:20;;;;;;;2.72;1.80;;;;;;;;;;5057807;28;20170;-79
2022/12/28 15:02:46;;;;;;;4.45;3.30;;;;;;;;;;5057526;28;20527;-79
2022/12/28 15:05:31;;;;;;;1.52;1.38;;;;;;;;;;5056919;28;20177;-79
2022/12/28 15:07:57;;;;;;;2.88;1.35;;;;;;;;;;5057294;28;20174;-79
2022/12/28 15:10:23;;;;;;;1.60;1.10;;;;;;;;;;5056966;28;20197;-80
2022/12/28 15:12:49;;;;;;;1.27;1.08;;;;;;;;;;5056323;28;20176;-80
2022/12/28 15:15:15;;;;;;;2.25;1.25;;;;;;;;;;5057112;28;20173;-79
2022/12/28 15:17:41;;;;;;;1.30;1.00;;;;;;;;;;5056198;28;20185;-79